Time;durP1;ratioP1;P1;durP2;ratioP2;P2;SDS_P1;SDS_P2;PMS_P1;PMS_P2;Temp;Humidity;BMP_temperature;BMP_pressure;BME280_temperature;BME280_humidity;BME280_pressure;Samples;Min_cycle;Max_cycle;Signal;HPM_P1;HPM_P2
2021/03/08 00:00:58;;;;;;;12.70;11.50;;;6.20;24.30;;;;;;5054271;28;20274;-68
2021/03/08 00:03:24;;;;;;;12.80;11.50;;;6.30;24.20;;;;;;5054017;28;20209;-68
2021/03/08 00:05:49;;;;;;;12.83;11.53;;;6.50;24.20;;;;;;5054583;28;20175;-66
2021/03/08 00:08:15;;;;;;;12.47;11.27;;;6.50;24.20;;;;;;5054024;28;20179;-68
2021/03/08 00:10:41;;;;;;;12.53;11.43;;;6.50;24.60;;;;;;5054065;28;20195;-69
2021/03/08 00:13:06;;;;;;;13.53;12.33;;;6.40;24.70;;;;;;5054131;28;20168;-69
2021/03/08 00:15:32;;;;;;;12.40;11.20;;;6.50;24.50;;;;;;5054158;28;20254;-68
2021/03/08 00:17:58;;;;;;;12.43;11.33;;;6.70;24.00;;;;;;5053806;28;20175;-67
2021/03/08 00:20:27;;;;;;;13.73;12.43;;;6.60;23.70;;;;;;5053927;28;20252;-69
2021/03/08 00:22:53;;;;;;;11.30;10.30;;;6.60;23.30;;;;;;5053807;28;20203;-69
2021/03/08 00:25:21;;;;;;;11.63;10.73;;;6.50;23.40;;;;;;5054012;28;20788;-68
2021/03/08 00:27:47;;;;;;;12.17;11.07;;;6.60;23.40;;;;;;5053583;28;20445;-69
2021/03/08 00:30:14;;;;;;;12.20;11.10;;;6.30;23.20;;;;;;5053850;28;20928;-69
2021/03/08 00:32:39;;;;;;;11.00;10.00;;;6.30;23.60;;;;;;5053625;28;20172;-69
2021/03/08 00:35:07;;;;;;;12.10;11.00;;;6.10;23.50;;;;;;5053978;28;20414;-69
2021/03/08 00:37:34;;;;;;;12.67;10.63;;;5.90;23.70;;;;;;5053452;28;20182;-68
2021/03/08 00:40:02;;;;;;;11.67;10.67;;;6.00;23.80;;;;;;5053535;28;21025;-69
2021/03/08 00:42:27;;;;;;;11.60;10.40;;;6.20;23.40;;;;;;5053468;28;20410;-69
2021/03/08 00:44:55;;;;;;;10.77;9.87;;;6.00;23.40;;;;;;5053157;28;20417;-68
2021/03/08 00:47:21;;;;;;;12.10;10.77;;;6.30;22.90;;;;;;5051997;28;20175;-67
2021/03/08 00:49:48;;;;;;;11.80;10.67;;;6.40;22.30;;;;;;5053613;28;20403;-68
2021/03/08 00:52:13;;;;;;;11.03;10.00;;;6.30;22.00;;;;;;5053593;28;20784;-68
2021/03/08 00:54:39;;;;;;;10.57;9.77;;;5.50;23.10;;;;;;5053502;28;20427;-67
2021/03/08 00:57:05;;;;;;;11.80;10.70;;;5.40;24.00;;;;;;5055217;28;20213;-65
2021/03/08 00:59:30;;;;;;;11.83;10.63;;;5.30;25.10;;;;;;5071643;28;20191;-67
2021/03/08 01:01:56;;;;;;;11.33;10.00;;;5.40;25.20;;;;;;5062929;28;20900;-69
2021/03/08 01:04:21;;;;;;;11.97;10.87;;;5.80;24.80;;;;;;5053402;28;20223;-69
2021/03/08 01:06:47;;;;;;;11.80;10.60;;;5.80;25.20;;;;;;5053502;28;20187;-67
2021/03/08 01:09:13;;;;;;;16.00;12.20;;;6.00;25.00;;;;;;5072012;28;20638;-64
2021/03/08 01:11:38;;;;;;;14.50;11.30;;;6.00;25.20;;;;;;5073359;28;20457;-68
2021/03/08 01:14:04;;;;;;;12.90;11.70;;;5.90;25.70;;;;;;5073264;28;20597;-68
2021/03/08 01:16:29;;;;;;;12.90;11.67;;;6.00;25.60;;;;;;5070229;28;20183;-68
2021/03/08 01:18:55;;;;;;;13.10;11.83;;;5.90;25.60;;;;;;5052856;28;20654;-68
2021/03/08 01:21:20;;;;;;;12.80;11.47;;;5.90;26.00;;;;;;5052961;28;20234;-69
2021/03/08 01:23:46;;;;;;;12.43;11.23;;;5.80;25.80;;;;;;5052780;28;20751;-69
2021/03/08 01:26:11;;;;;;;12.43;11.30;;;5.70;24.90;;;;;;5052998;28;20164;-67
2021/03/08 01:28:37;;;;;;;10.83;9.73;;;5.50;25.20;;;;;;5052605;28;20541;-69
2021/03/08 01:31:03;;;;;;;13.63;11.20;;;5.60;25.10;;;;;;5052582;28;20203;-68
2021/03/08 01:33:28;;;;;;;12.60;11.27;;;5.30;25.50;;;;;;5057083;28;20183;-69
2021/03/08 01:35:54;;;;;;;11.33;10.33;;;5.10;26.40;;;;;;5069578;28;20184;-67
2021/03/08 01:38:19;;;;;;;11.93;10.27;;;5.60;25.50;;;;;;5052183;28;20185;-69
2021/03/08 01:40:45;;;;;;;11.00;10.00;;;5.90;25.00;;;;;;5059581;28;20554;-68
2021/03/08 01:43:11;;;;;;;11.80;10.03;;;5.90;24.50;;;;;;5052322;28;20242;-69
2021/03/08 01:45:38;;;;;;;12.07;10.97;;;6.00;24.40;;;;;;5052382;28;20230;-68
2021/03/08 01:48:03;;;;;;;12.27;11.17;;;6.00;24.10;;;;;;5052144;28;20921;-67
2021/03/08 01:50:31;;;;;;;11.47;10.47;;;5.90;23.80;;;;;;5052222;28;20481;-67
2021/03/08 01:53:01;;;;;;;13.30;11.90;;;5.60;25.00;;;;;;5067978;28;20225;-68
2021/03/08 01:55:28;;;;;;;12.23;11.03;;;5.80;25.20;;;;;;5072212;28;20441;-67
2021/03/08 01:57:53;;;;;;;12.57;11.47;;;5.80;23.50;;;;;;5071060;28;20416;-68
2021/03/08 02:00:20;;;;;;;12.20;11.10;;;5.90;22.50;;;;;;5071968;28;20417;-68
2021/03/08 02:02:46;;;;;;;11.60;10.47;;;5.80;23.00;;;;;;5071941;28;20251;-68
2021/03/08 02:05:14;;;;;;;11.40;10.40;;;5.50;22.70;;;;;;5070719;28;20417;-66
2021/03/08 02:07:40;;;;;;;12.20;10.93;;;5.40;23.30;;;;;;5072026;28;20868;-68
2021/03/08 02:10:11;;;;;;;12.57;11.27;;;5.30;23.90;;;;;;5071780;28;20783;-66
2021/03/08 02:12:45;;;;;;;12.50;11.20;;;5.40;23.90;;;;;;5071815;28;20416;-68
2021/03/08 02:15:23;;;;;;;12.63;11.40;;;5.30;24.80;;;;;;5071908;28;20908;-68
2021/03/08 02:18:30;;;;;;;12.23;11.03;;;5.40;24.30;;;;;;5071693;28;20411;-67
2021/03/08 02:21:12;;;;;;;12.70;11.50;;;5.50;24.50;;;;;;5071290;28;20484;-67
2021/03/08 02:24:21;;;;;;;14.80;13.33;;;5.60;24.10;;;;;;5071588;28;20476;-68
2021/03/08 02:26:54;;;;;;;13.37;12.07;;;5.70;24.00;;;;;;5071751;28;20418;-65
2021/03/08 02:29:51;;;;;;;15.60;12.30;;;5.50;23.70;;;;;;5071447;28;20402;-68
2021/03/08 02:32:23;;;;;;;13.73;12.43;;;5.40;24.10;;;;;;5071676;28;20425;-68
2021/03/08 02:34:57;;;;;;;14.17;11.93;;;5.40;24.30;;;;;;5071500;28;20748;-68
2021/03/08 02:37:27;;;;;;;12.50;11.40;;;5.70;24.10;;;;;;5071237;28;20401;-68
2021/03/08 02:39:58;;;;;;;14.50;13.17;;;5.70;23.70;;;;;;5071151;28;20433;-68
2021/03/08 02:42:29;;;;;;;14.93;13.43;;;5.60;23.90;;;;;;5071295;28;20418;-68
2021/03/08 02:44:59;;;;;;;13.17;11.90;;;5.70;24.00;;;;;;5071371;28;20450;-68
2021/03/08 02:47:28;;;;;;;13.93;12.60;;;5.70;24.20;;;;;;5071157;28;20441;-69
2021/03/08 02:49:55;;;;;;;13.97;12.77;;;5.70;24.20;;;;;;5071216;28;20405;-67
2021/03/08 02:52:25;;;;;;;13.63;12.23;;;5.60;24.40;;;;;;5071036;28;20429;-70
2021/03/08 02:54:54;;;;;;;14.80;13.40;;;5.10;25.20;;;;;;5071124;28;20449;-69
2021/03/08 02:57:25;;;;;;;13.77;12.47;;;4.80;26.00;;;;;;5070945;28;21072;-68
2021/03/08 02:59:52;;;;;;;14.70;13.20;;;4.80;26.40;;;;;;5062881;28;20420;-67
2021/03/08 03:02:19;;;;;;;13.43;12.13;;;4.60;26.40;;;;;;5051979;28;20945;-69
2021/03/08 03:04:47;;;;;;;14.33;12.93;;;4.50;26.80;;;;;;5063367;28;20410;-67
2021/03/08 03:07:15;;;;;;;14.60;13.10;;;4.10;27.50;;;;;;5070806;28;20398;-67
2021/03/08 03:09:42;;;;;;;14.43;13.13;;;4.10;28.20;;;;;;5070720;28;20406;-67
2021/03/08 03:12:10;;;;;;;14.53;13.13;;;4.40;27.80;;;;;;5070875;28;20502;-67
2021/03/08 03:14:36;;;;;;;12.70;11.50;;;4.30;28.30;;;;;;5070899;28;20409;-67
2021/03/08 03:17:06;;;;;;;15.63;14.07;;;4.60;27.70;;;;;;5050874;28;20419;-67
2021/03/08 03:19:34;;;;;;;13.77;12.57;;;4.90;26.80;;;;;;5051077;28;20399;-67
2021/03/08 03:22:01;;;;;;;14.30;12.80;;;4.50;27.10;;;;;;5049499;28;20472;-67
2021/03/08 03:24:30;;;;;;;15.20;13.70;;;4.30;27.80;;;;;;5050609;28;20858;-69
2021/03/08 03:26:57;;;;;;;14.63;12.83;;;4.40;28.00;;;;;;5050724;28;20810;-67
2021/03/08 03:29:24;;;;;;;13.63;12.43;;;4.70;27.40;;;;;;5050633;28;20406;-68
2021/03/08 03:31:50;;;;;;;14.73;13.37;;;4.60;27.10;;;;;;5050744;28;20517;-69
2021/03/08 03:34:18;;;;;;;14.20;12.90;;;4.80;27.20;;;;;;5049291;28;20537;-68
2021/03/08 03:36:46;;;;;;;15.63;13.97;;;5.00;26.60;;;;;;5057473;28;20885;-69
2021/03/08 03:39:12;;;;;;;14.50;13.00;;;5.20;25.90;;;;;;5053015;28;20426;-68
2021/03/08 03:41:39;;;;;;;15.10;13.67;;;5.10;26.30;;;;;;5062075;28;20445;-69
2021/03/08 03:44:07;;;;;;;14.30;13.00;;;4.70;26.80;;;;;;5053805;28;20814;-66
2021/03/08 03:46:42;;;;;;;14.77;13.47;;;4.20;27.70;;;;;;5050411;28;20443;-67
2021/03/08 03:49:08;;;;;;;13.13;11.90;;;4.30;27.70;;;;;;5054023;28;20441;-68
2021/03/08 03:51:34;;;;;;;14.20;12.80;;;4.20;27.90;;;;;;5070413;28;20438;-67
2021/03/08 03:54:00;;;;;;;14.40;12.73;;;4.10;27.90;;;;;;5070546;28;20755;-68
2021/03/08 03:56:29;;;;;;;13.87;12.37;;;4.30;27.90;;;;;;5070340;28;20825;-67
2021/03/08 03:59:15;;;;;;;14.37;12.10;;;4.50;27.60;;;;;;5056398;28;20188;-66
2021/03/08 04:01:51;;;;;;;14.53;13.03;;;4.40;27.30;;;;;;5050293;28;21175;-68
2021/03/08 04:04:24;;;;;;;13.47;12.17;;;4.10;27.50;;;;;;5050325;28;20511;-68
2021/03/08 04:06:51;;;;;;;13.80;12.40;;;3.90;28.10;;;;;;5050294;28;20438;-68
2021/03/08 04:09:19;;;;;;;13.70;12.40;;;3.90;28.20;;;;;;5050121;28;20449;-68
2021/03/08 04:11:47;;;;;;;13.40;12.10;;;3.80;28.40;;;;;;5050148;28;20434;-68
2021/03/08 04:14:16;;;;;;;13.53;12.17;;;3.60;29.00;;;;;;5050477;28;20411;-68
2021/03/08 04:16:45;;;;;;;13.60;12.30;;;3.70;29.00;;;;;;5050211;28;20418;-68
2021/03/08 04:19:13;;;;;;;14.23;12.97;;;3.70;29.00;;;;;;5050025;28;20425;-68
2021/03/08 04:21:40;;;;;;;15.37;13.73;;;3.60;29.60;;;;;;5053308;28;20426;-68
2021/03/08 04:24:12;;;;;;;17.30;14.00;;;3.80;29.50;;;;;;5053934;28;20464;-68
2021/03/08 04:26:39;;;;;;;14.17;12.87;;;3.90;28.80;;;;;;5053920;28;20406;-67
2021/03/08 04:29:06;;;;;;;14.73;13.13;;;3.60;29.20;;;;;;5053732;28;20917;-67
2021/03/08 04:31:33;;;;;;;14.50;13.17;;;3.80;29.70;;;;;;5053696;28;20448;-65
2021/03/08 04:34:00;;;;;;;13.80;12.50;;;3.80;29.00;;;;;;5053874;28;20401;-67
2021/03/08 04:36:27;;;;;;;15.47;13.30;;;3.80;29.30;;;;;;5053662;28;20497;-67
2021/03/08 04:38:54;;;;;;;14.77;13.03;;;4.20;28.80;;;;;;5053432;28;20434;-68
2021/03/08 04:41:19;;;;;;;15.80;14.23;;;4.40;28.40;;;;;;5053518;28;20438;-68
2021/03/08 04:43:46;;;;;;;14.00;12.60;;;4.50;28.50;;;;;;5053619;28;20454;-67
2021/03/08 04:46:13;;;;;;;17.03;13.70;;;4.60;28.10;;;;;;5053507;28;20546;-67
2021/03/08 04:48:40;;;;;;;15.80;14.20;;;4.70;28.30;;;;;;5053354;28;20773;-68
2021/03/08 04:51:07;;;;;;;15.50;14.10;;;4.80;27.60;;;;;;5053310;28;20437;-68
2021/03/08 04:53:34;;;;;;;15.37;13.93;;;4.90;27.50;;;;;;5053502;28;20418;-68
2021/03/08 04:56:01;;;;;;;16.17;14.57;;;4.70;27.70;;;;;;5053337;28;20415;-68
2021/03/08 04:58:26;;;;;;;14.83;13.43;;;4.80;27.60;;;;;;5053222;28;20899;-67
2021/03/08 05:00:55;;;;;;;27.00;14.70;;;4.70;27.80;;;;;;5057488;28;20478;-66
2021/03/08 05:03:23;;;;;;;15.23;13.77;;;4.70;27.90;;;;;;5054070;28;20713;-66
2021/03/08 05:05:50;;;;;;;16.30;14.70;;;4.70;28.40;;;;;;5065812;28;20418;-68
2021/03/08 05:08:15;;;;;;;16.80;15.10;;;4.60;27.80;;;;;;5059144;28;20536;-67
2021/03/08 05:10:41;;;;;;;15.27;13.73;;;4.60;28.10;;;;;;5071777;28;20891;-67
2021/03/08 05:13:09;;;;;;;16.50;14.80;;;4.20;28.40;;;;;;5054757;28;20419;-68
2021/03/08 05:15:36;;;;;;;14.80;13.30;;;4.20;28.80;;;;;;5068393;28;20211;-69
2021/03/08 05:18:03;;;;;;;16.57;15.07;;;4.40;28.60;;;;;;5070364;28;20426;-68
2021/03/08 05:20:29;;;;;;;16.00;14.30;;;4.50;28.50;;;;;;5063504;28;20840;-67
2021/03/08 05:23:01;;;;;;;16.20;14.67;;;4.70;28.00;;;;;;5068544;28;20512;-68
2021/03/08 05:25:27;;;;;;;15.67;14.17;;;4.70;28.60;;;;;;5050574;28;20411;-68
2021/03/08 05:27:53;;;;;;;16.10;14.57;;;4.80;28.10;;;;;;5051992;28;20479;-68
2021/03/08 05:30:21;;;;;;;16.20;14.70;;;4.80;28.20;;;;;;5057874;28;20838;-66
2021/03/08 05:32:58;;;;;;;16.60;14.93;;;4.80;28.20;;;;;;5053468;28;20433;-69
2021/03/08 05:35:25;;;;;;;16.50;14.80;;;4.60;28.60;;;;;;5053311;28;20421;-69
2021/03/08 05:37:51;;;;;;;16.00;14.30;;;4.70;28.50;;;;;;5062882;28;20423;-67
2021/03/08 05:40:38;;;;;;;15.87;14.37;;;4.30;28.40;;;;;;5067413;28;20429;-64
2021/03/08 05:43:07;;;;;;;16.30;14.70;;;3.90;29.60;;;;;;5058287;28;20458;-65
2021/03/08 05:45:35;;;;;;;21.33;15.23;;;4.10;30.10;;;;;;5054306;28;20430;-66
2021/03/08 05:48:23;;;;;;;15.80;14.20;;;3.80;30.00;;;;;;5053506;28;20413;-66
2021/03/08 05:51:16;;;;;;;17.27;15.20;;;4.00;31.00;;;;;;5071899;28;20433;-66
2021/03/08 05:54:09;;;;;;;20.00;14.80;;;4.10;30.10;;;;;;5067581;28;20438;-66
2021/03/08 05:56:58;;;;;;;16.73;14.90;;;4.20;29.40;;;;;;5071866;28;20402;-69
2021/03/08 05:59:53;;;;;;;14.87;13.37;;;4.50;30.00;;;;;;5069765;28;20844;-65
2021/03/08 06:02:40;;;;;;;16.30;14.60;;;4.30;28.90;;;;;;5066207;28;20960;-66
2021/03/08 06:05:43;;;;;;;18.30;14.37;;;4.20;29.30;;;;;;5071799;28;20409;-67
2021/03/08 06:08:31;;;;;;;14.87;13.47;;;4.00;30.20;;;;;;5068304;28;20436;-65
2021/03/08 06:11:11;;;;;;;18.93;14.60;;;4.30;30.20;;;;;;5051304;28;20529;-66
2021/03/08 06:13:57;;;;;;;18.03;14.73;;;4.40;29.20;;;;;;5050263;28;20454;-67
2021/03/08 06:16:32;;;;;;;15.87;14.37;;;4.00;30.20;;;;;;5057275;28;20825;-66
2021/03/08 06:19:03;;;;;;;17.27;15.53;;;4.30;29.90;;;;;;5071564;28;20492;-67
2021/03/08 06:21:31;;;;;;;16.83;15.17;;;4.30;29.60;;;;;;5071624;28;20430;-66
2021/03/08 06:23:58;;;;;;;16.27;14.70;;;4.40;29.50;;;;;;5059715;28;20462;-68
2021/03/08 06:26:25;;;;;;;16.87;15.03;;;4.40;29.90;;;;;;5069090;28;20419;-68
2021/03/08 06:28:51;;;;;;;15.77;14.27;;;4.80;29.70;;;;;;5069983;28;20491;-68
2021/03/08 06:31:17;;;;;;;17.40;15.70;;;4.80;28.70;;;;;;5070944;28;20421;-68
2021/03/08 06:33:42;;;;;;;16.63;15.03;;;4.60;28.60;;;;;;5069500;28;20505;-68
2021/03/08 06:36:10;;;;;;;17.27;15.50;;;4.20;29.30;;;;;;5071004;28;20245;-68
2021/03/08 06:38:37;;;;;;;18.73;15.80;;;4.20;29.30;;;;;;5070963;28;20197;-68
2021/03/08 06:41:06;;;;;;;16.80;14.57;;;3.90;29.90;;;;;;5070251;28;20516;-68
2021/03/08 06:43:31;;;;;;;17.20;15.40;;;3.40;31.50;;;;;;5070699;28;20963;-69
2021/03/08 06:45:57;;;;;;;17.67;15.73;;;3.70;31.20;;;;;;5070737;28;20489;-69
2021/03/08 06:48:23;;;;;;;17.30;15.47;;;3.80;31.10;;;;;;5070557;28;20453;-67
2021/03/08 06:51:08;;;;;;;16.57;15.00;;;3.90;30.60;;;;;;5070770;28;20570;-68
2021/03/08 06:53:34;;;;;;;17.23;14.33;;;4.10;30.10;;;;;;5070799;28;20405;-68
2021/03/08 06:56:21;;;;;;;16.97;15.10;;;4.30;30.00;;;;;;5070288;28;20493;-68
2021/03/08 06:59:03;;;;;;;16.40;14.77;;;4.40;29.70;;;;;;5070627;28;20429;-67
2021/03/08 07:01:35;;;;;;;16.30;14.90;;;3.90;30.00;;;;;;5061913;28;20941;-67
2021/03/08 07:04:02;;;;;;;16.73;15.23;;;3.70;31.10;;;;;;5068117;28;20588;-67
2021/03/08 07:06:28;;;;;;;18.73;16.83;;;4.00;30.90;;;;;;5051859;28;20779;-67
2021/03/08 07:09:07;;;;;;;16.07;14.47;;;4.00;31.90;;;;;;5051216;28;20411;-66
2021/03/08 07:11:32;;;;;;;17.30;15.30;;;4.40;31.20;;;;;;5070443;28;20437;-68
2021/03/08 07:13:59;;;;;;;17.47;15.73;;;4.60;30.80;;;;;;5070494;28;20459;-69
2021/03/08 07:16:40;;;;;;;16.07;14.47;;;4.70;30.00;;;;;;5070360;28;20182;-68
2021/03/08 07:19:06;;;;;;;19.23;15.07;;;4.70;29.10;;;;;;5064021;28;20425;-66
2021/03/08 07:21:32;;;;;;;17.50;15.70;;;4.80;29.50;;;;;;5050605;28;20425;-66
2021/03/08 07:24:10;;;;;;;16.40;14.80;;;4.90;29.30;;;;;;5049964;28;20203;-66
2021/03/08 07:26:36;;;;;;;17.67;15.83;;;5.10;28.90;;;;;;5058514;28;21081;-68
2021/03/08 07:29:09;;;;;;;19.20;17.40;;;5.00;28.80;;;;;;5053157;28;20411;-68
2021/03/08 07:31:36;;;;;;;19.93;14.87;;;4.80;29.00;;;;;;5059993;28;20437;-66
2021/03/08 07:34:04;;;;;;;16.23;14.63;;;4.70;29.50;;;;;;5068041;28;20449;-66
2021/03/08 07:36:29;;;;;;;27.87;19.00;;;4.90;28.90;;;;;;5062758;28;20507;-67
2021/03/08 07:38:55;;;;;;;17.60;16.00;;;5.10;28.90;;;;;;5068364;28;20521;-66
2021/03/08 07:41:23;;;;;;;17.20;15.60;;;5.10;28.90;;;;;;5063684;28;20714;-66
2021/03/08 07:43:50;;;;;;;16.50;14.80;;;5.20;28.80;;;;;;5068539;28;20819;-66
2021/03/08 07:46:30;;;;;;;17.23;15.60;;;5.20;28.10;;;;;;5050398;28;20418;-67
2021/03/08 07:48:57;;;;;;;16.83;15.23;;;5.20;28.30;;;;;;5050515;28;20440;-66
2021/03/08 07:51:23;;;;;;;17.37;15.83;;;5.20;28.90;;;;;;5060793;28;20496;-67
2021/03/08 07:54:01;;;;;;;18.40;16.50;;;5.00;28.80;;;;;;5050436;28;20410;-68
2021/03/08 07:56:26;;;;;;;16.87;15.27;;;5.20;28.40;;;;;;5053479;28;20191;-67
2021/03/08 07:58:53;;;;;;;19.33;17.57;;;5.10;28.60;;;;;;5054078;28;20761;-68
2021/03/08 08:01:19;;;;;;;19.10;15.97;;;5.10;28.90;;;;;;5054041;28;20567;-67
2021/03/08 08:03:44;;;;;;;19.17;17.17;;;5.10;28.90;;;;;;5054116;28;20457;-67
2021/03/08 08:06:12;;;;;;;17.43;15.73;;;5.20;28.30;;;;;;5054244;28;20179;-68
2021/03/08 08:08:45;;;;;;;16.43;14.83;;;5.30;28.50;;;;;;5053999;28;20168;-68
2021/03/08 08:11:11;;;;;;;17.50;15.73;;;5.20;28.40;;;;;;5053992;28;20939;-68
2021/03/08 08:13:44;;;;;;;18.10;15.93;;;5.20;28.50;;;;;;5054077;28;20422;-68
2021/03/08 08:16:12;;;;;;;17.43;15.63;;;5.30;28.20;;;;;;5054633;28;20426;-66
2021/03/08 08:18:40;;;;;;;13.93;12.13;;;6.40;46.30;;;;;;5064623;28;20429;-66
2021/03/08 08:21:11;;;;;;;14.83;13.43;;;7.50;52.50;;;;;;5073233;28;20458;-66
2021/03/08 08:23:44;;;;;;;17.50;15.10;;;8.20;47.60;;;;;;5073410;28;20451;-67
2021/03/08 08:26:16;;;;;;;17.87;13.17;;;7.50;31.60;;;;;;5073348;28;20915;-65
2021/03/08 08:28:46;;;;;;;20.30;15.60;;;7.30;39.30;;;;;;5073597;28;20406;-68
2021/03/08 08:31:13;;;;;;;17.00;15.40;;;7.70;32.50;;;;;;5071260;28;20440;-67
2021/03/08 08:33:39;;;;;;;17.03;15.33;;;6.90;26.10;;;;;;5072894;28;20409;-69
2021/03/08 08:36:18;;;;;;;16.43;14.83;;;6.70;26.20;;;;;;5072805;28;20989;-69
2021/03/08 08:39:04;;;;;;;16.77;15.00;;;6.40;26.60;;;;;;5058899;28;20535;-67
2021/03/08 08:41:34;;;;;;;17.80;16.10;;;6.30;26.90;;;;;;5053242;28;20448;-67
2021/03/08 08:44:17;;;;;;;17.33;15.63;;;6.10;27.10;;;;;;5053049;28;20546;-67
2021/03/08 08:46:46;;;;;;;18.17;16.40;;;6.10;27.50;;;;;;5053309;28;20483;-69
2021/03/08 08:49:18;;;;;;;17.73;16.13;;;5.80;28.10;;;;;;5062578;28;20409;-66
2021/03/08 08:51:55;;;;;;;17.13;15.63;;;5.90;27.80;;;;;;5073386;28;20433;-67
2021/03/08 08:54:26;;;;;;;16.90;15.30;;;5.50;28.70;;;;;;5072105;28;20928;-69
2021/03/08 08:56:53;;;;;;;17.10;15.60;;;5.70;28.10;;;;;;5072894;28;20805;-68
2021/03/08 08:59:21;;;;;;;17.50;15.17;;;5.90;27.40;;;;;;5072949;28;20908;-69
2021/03/08 09:01:47;;;;;;;18.07;16.20;;;5.70;27.70;;;;;;5072888;28;20839;-68
2021/03/08 09:04:16;;;;;;;17.13;15.53;;;5.80;27.70;;;;;;5072884;28;20457;-70
2021/03/08 09:06:42;;;;;;;16.07;14.57;;;6.10;27.50;;;;;;5072679;28;20437;-72
2021/03/08 09:09:13;;;;;;;17.23;15.70;;;6.20;27.10;;;;;;5072793;28;20406;-68
2021/03/08 09:12:00;;;;;;;16.87;15.17;;;6.00;27.00;;;;;;5072847;28;20435;-69
2021/03/08 09:14:47;;;;;;;15.33;13.77;;;5.90;27.30;;;;;;5072934;28;20434;-68
2021/03/08 09:17:25;;;;;;;17.80;15.97;;;6.00;27.10;;;;;;5056555;28;20415;-68
2021/03/08 09:19:56;;;;;;;16.67;14.83;;;6.00;27.50;;;;;;5056070;28;21130;-68
2021/03/08 09:22:22;;;;;;;17.27;15.53;;;6.00;27.40;;;;;;5072588;28;20424;-69
2021/03/08 09:24:49;;;;;;;17.93;16.23;;;6.30;27.00;;;;;;5072256;28;20479;-68
2021/03/08 09:27:23;;;;;;;17.23;15.63;;;6.30;27.00;;;;;;5072216;28;20249;-66
2021/03/08 09:29:49;;;;;;;16.77;15.30;;;6.30;27.20;;;;;;5063852;28;20472;-69
2021/03/08 09:32:16;;;;;;;17.07;15.40;;;6.30;27.70;;;;;;5051622;28;20441;-68
2021/03/08 09:34:42;;;;;;;15.67;14.10;;;6.50;27.10;;;;;;5060214;28;20421;-69
2021/03/08 09:37:07;;;;;;;16.20;14.60;;;6.50;27.00;;;;;;5065764;28;20424;-70
2021/03/08 09:39:46;;;;;;;16.50;14.90;;;6.50;27.80;;;;;;5066808;28;20207;-69
2021/03/08 09:42:11;;;;;;;18.00;16.27;;;6.60;26.20;;;;;;5059820;28;20206;-69
2021/03/08 09:44:41;;;;;;;17.83;16.00;;;6.30;26.50;;;;;;5059618;28;20961;-66
2021/03/08 09:47:07;;;;;;;15.73;14.23;;;6.20;27.10;;;;;;5071956;28;20736;-68
2021/03/08 09:49:51;;;;;;;16.30;14.80;;;6.40;26.90;;;;;;5064487;28;20418;-68
2021/03/08 09:52:38;;;;;;;17.00;15.47;;;6.60;26.80;;;;;;5051735;28;20441;-68
2021/03/08 09:55:05;;;;;;;15.97;14.50;;;6.70;26.00;;;;;;5051799;28;20422;-65
2021/03/08 09:57:36;;;;;;;18.33;15.63;;;6.90;26.00;;;;;;5053628;28;20422;-69
2021/03/08 10:00:27;;;;;;;17.00;15.30;;;6.60;25.40;;;;;;5058713;28;20425;-67
2021/03/08 10:03:03;;;;;;;16.60;14.77;;;6.70;25.90;;;;;;5051700;28;20406;-69
2021/03/08 10:05:48;;;;;;;16.63;14.70;;;7.10;25.50;;;;;;5051737;28;20893;-67
2021/03/08 10:08:18;;;;;;;18.70;15.00;;;7.30;24.30;;;;;;5053604;28;20464;-65
2021/03/08 10:10:53;;;;;;;18.13;15.10;;;7.40;25.00;;;;;;5071355;28;20759;-65
2021/03/08 10:13:20;;;;;;;14.57;13.20;;;7.50;24.40;;;;;;5069178;28;20508;-68
2021/03/08 10:15:49;;;;;;;16.50;14.87;;;7.60;23.90;;;;;;5063966;28;20419;-67
2021/03/08 10:18:17;;;;;;;15.40;13.80;;;7.90;23.80;;;;;;5050412;28;20445;-66
2021/03/08 10:20:55;;;;;;;14.20;12.93;;;8.10;22.80;;;;;;5051752;28;20437;-69
2021/03/08 10:23:29;;;;;;;15.33;13.80;;;8.00;22.70;;;;;;5051817;28;20540;-68
2021/03/08 10:26:13;;;;;;;14.63;13.33;;;8.10;22.80;;;;;;5051728;28;20441;-67
2021/03/08 10:28:48;;;;;;;12.27;11.27;;;8.10;22.80;;;;;;5057693;28;20498;-69
2021/03/08 10:31:26;;;;;;;14.87;13.50;;;8.00;22.70;;;;;;5060031;28;20445;-67
2021/03/08 10:34:07;;;;;;;17.50;15.90;;;7.90;22.70;;;;;;5070961;28;20792;-69
2021/03/08 10:36:38;;;;;;;14.63;13.33;;;7.70;22.50;;;;;;5071075;28;20806;-68
2021/03/08 10:39:10;;;;;;;14.67;13.40;;;7.80;22.80;;;;;;5070479;28;20429;-65
2021/03/08 10:41:37;;;;;;;14.67;13.50;;;8.00;22.70;;;;;;5057451;28;20442;-68
2021/03/08 10:44:05;;;;;;;12.23;11.23;;;8.10;22.80;;;;;;5055160;28;20469;-66
2021/03/08 10:46:38;;;;;;;13.07;11.87;;;8.10;23.90;;;;;;5069900;28;20469;-66
2021/03/08 10:49:09;;;;;;;14.43;13.10;;;8.30;22.10;;;;;;5070196;28;20406;-66
2021/03/08 10:51:37;;;;;;;14.43;12.10;;;8.30;21.80;;;;;;5070573;28;20521;-66
2021/03/08 10:54:08;;;;;;;12.00;10.67;;;8.30;21.40;;;;;;5070590;28;20417;-67
2021/03/08 10:56:36;;;;;;;12.43;11.40;;;8.30;21.20;;;;;;5070624;28;20417;-67
2021/03/08 10:59:03;;;;;;;12.63;11.47;;;8.30;21.10;;;;;;5063008;28;20664;-67
2021/03/08 11:01:30;;;;;;;13.47;12.03;;;8.30;20.80;;;;;;5067807;28;20460;-67
2021/03/08 11:03:56;;;;;;;11.90;10.80;;;8.20;21.20;;;;;;5070109;28;20453;-69
2021/03/08 11:06:23;;;;;;;12.50;11.30;;;8.10;20.90;;;;;;5069961;28;20406;-68
2021/03/08 11:08:56;;;;;;;12.73;11.53;;;8.40;20.80;;;;;;5069639;28;20413;-68
2021/03/08 11:11:32;;;;;;;12.63;11.43;;;8.50;21.10;;;;;;5070064;28;21266;-67
2021/03/08 11:14:04;;;;;;;11.63;10.63;;;8.70;20.40;;;;;;5069933;28;20419;-67
2021/03/08 11:16:31;;;;;;;10.83;9.93;;;9.20;19.70;;;;;;5069561;28;20783;-66
2021/03/08 11:19:18;;;;;;;14.73;12.60;;;9.40;19.10;;;;;;5069521;28;20454;-66
2021/03/08 11:21:44;;;;;;;13.17;11.87;;;9.30;19.70;;;;;;5069995;28;20429;-65
2021/03/08 11:24:18;;;;;;;11.53;10.50;;;9.60;20.40;;;;;;5069869;28;20460;-67
2021/03/08 11:27:32;;;;;;;12.77;11.67;;;9.80;18.90;;;;;;5070317;28;20953;-68
2021/03/08 11:30:03;;;;;;;12.60;11.53;;;9.60;18.10;;;;;;5049263;28;20431;-66
2021/03/08 11:32:30;;;;;;;12.97;11.67;;;9.80;18.30;;;;;;5059608;28;20440;-67
2021/03/08 11:34:56;;;;;;;13.60;12.30;;;9.90;18.60;;;;;;5070253;28;20414;-68
2021/03/08 11:37:23;;;;;;;11.70;10.70;;;9.90;17.80;;;;;;5051145;28;20833;-67
2021/03/08 11:39:55;;;;;;;13.33;12.20;;;10.30;17.10;;;;;;5056000;28;20201;-68
2021/03/08 11:42:25;;;;;;;12.60;11.50;;;10.40;15.90;;;;;;5051021;28;20443;-68
2021/03/08 11:44:51;;;;;;;13.03;11.83;;;10.20;16.20;;;;;;5049886;28;20460;-66
2021/03/08 11:47:17;;;;;;;12.53;11.33;;;10.50;16.70;;;;;;5062069;28;20487;-66
2021/03/08 11:49:42;;;;;;;13.97;12.67;;;10.20;17.30;;;;;;5054425;28;20418;-67
2021/03/08 11:52:09;;;;;;;11.73;10.70;;;10.60;17.00;;;;;;5069003;28;20860;-65
2021/03/08 11:54:35;;;;;;;12.93;11.83;;;10.90;15.80;;;;;;5070190;28;20183;-67
2021/03/08 11:57:04;;;;;;;12.23;11.03;;;10.70;15.40;;;;;;5059214;28;20460;-68
2021/03/08 11:59:29;;;;;;;13.50;12.20;;;10.90;15.50;;;;;;5049616;28;20489;-67
2021/03/08 12:01:55;;;;;;;12.23;11.07;;;10.90;16.40;;;;;;5057622;28;20944;-67
2021/03/08 12:04:20;;;;;;;13.17;11.87;;;11.00;15.10;;;;;;5069907;28;20198;-67
2021/03/08 12:06:46;;;;;;;12.37;11.27;;;11.20;14.80;;;;;;5068434;28;20308;-67
2021/03/08 12:09:12;;;;;;;12.27;11.13;;;11.10;16.80;;;;;;5056880;28;20266;-68
2021/03/08 12:11:38;;;;;;;11.53;10.40;;;11.20;14.70;;;;;;5057156;28;20187;-67
2021/03/08 12:14:03;;;;;;;12.73;11.63;;;10.90;15.00;;;;;;5057392;28;20234;-68
2021/03/08 12:16:29;;;;;;;11.67;10.67;;;10.60;15.30;;;;;;5058464;28;20526;-68
2021/03/08 12:18:55;;;;;;;13.27;11.10;;;10.50;14.00;;;;;;5058604;28;20187;-69
2021/03/08 12:21:21;;;;;;;10.90;9.90;;;10.30;14.60;;;;;;5056911;28;20698;-69
2021/03/08 12:23:48;;;;;;;10.70;9.60;;;10.20;15.10;;;;;;5058517;28;20266;-68
2021/03/08 12:26:14;;;;;;;13.23;11.17;;;9.90;16.60;;;;;;5058974;28;20872;-67
2021/03/08 12:28:40;;;;;;;11.47;10.47;;;9.90;16.10;;;;;;5058957;28;20842;-68
2021/03/08 12:31:06;;;;;;;11.90;10.90;;;9.90;16.30;;;;;;5056278;28;20418;-68
2021/03/08 12:33:35;;;;;;;11.60;10.57;;;10.00;15.70;;;;;;5058431;28;20410;-66
2021/03/08 12:36:01;;;;;;;11.87;10.73;;;10.20;15.10;;;;;;5056533;28;20438;-69
2021/03/08 12:38:26;;;;;;;11.13;10.23;;;10.00;15.60;;;;;;5057761;28;20464;-70
2021/03/08 12:40:52;;;;;;;11.57;10.47;;;10.10;16.20;;;;;;5056645;28;20622;-68
2021/03/08 12:43:17;;;;;;;12.50;11.50;;;9.90;16.50;;;;;;5062751;28;20191;-69
2021/03/08 12:45:43;;;;;;;17.40;15.37;;;10.00;15.70;;;;;;5060739;28;20168;-68
2021/03/08 12:48:09;;;;;;;13.90;12.57;;;9.80;16.30;;;;;;5061596;28;20780;-68
2021/03/08 12:50:35;;;;;;;12.47;11.37;;;10.00;15.90;;;;;;5062597;28;20196;-67